sensor_id;sensor_type;location;lat;lon;timestamp;temperature;humidity
8896;DHT22;4484;48.928;10.066;2023-07-13T00:01:54;18.10;99.90
8896;DHT22;4484;48.928;10.066;2023-07-13T00:04:23;18.10;99.90
8896;DHT22;4484;48.928;10.066;2023-07-13T00:06:52;18.00;99.90
8896;DHT22;4484;48.928;10.066;2023-07-13T00:09:20;18.00;99.90
8896;DHT22;4484;48.928;10.066;2023-07-13T00:11:54;18.00;99.90
8896;DHT22;4484;48.928;10.066;2023-07-13T00:14:22;17.90;99.90
8896;DHT22;4484;48.928;10.066;2023-07-13T00:16:50;17.90;99.90
8896;DHT22;4484;48.928;10.066;2023-07-13T00:19:17;17.80;99.90
8896;DHT22;4484;48.928;10.066;2023-07-13T00:21:46;17.80;99.90
8896;DHT22;4484;48.928;10.066;2023-07-13T00:24:15;17.70;99.90
8896;DHT22;4484;48.928;10.066;2023-07-13T00:26:45;17.70;99.90
8896;DHT22;4484;48.928;10.066;2023-07-13T00:29:12;17.70;99.90
8896;DHT22;4484;48.928;10.066;2023-07-13T00:31:40;17.60;99.90
8896;DHT22;4484;48.928;10.066;2023-07-13T00:34:07;17.60;99.90
8896;DHT22;4484;48.928;10.066;2023-07-13T00:36:35;17.60;99.90
8896;DHT22;4484;48.928;10.066;2023-07-13T00:39:03;17.50;99.90
8896;DHT22;4484;48.928;10.066;2023-07-13T00:41:31;17.50;99.90
8896;DHT22;4484;48.928;10.066;2023-07-13T00:43:58;17.50;99.90
8896;DHT22;4484;48.928;10.066;2023-07-13T00:46:31;17.50;99.90
8896;DHT22;4484;48.928;10.066;2023-07-13T00:49:02;17.50;99.90
8896;DHT22;4484;48.928;10.066;2023-07-13T00:54:07;17.40;99.90
8896;DHT22;4484;48.928;10.066;2023-07-13T00:56:39;17.30;99.90
8896;DHT22;4484;48.928;10.066;2023-07-13T00:59:08;17.30;99.90
8896;DHT22;4484;48.928;10.066;2023-07-13T01:01:38;17.30;99.90
8896;DHT22;4484;48.928;10.066;2023-07-13T01:04:06;17.20;99.90
8896;DHT22;4484;48.928;10.066;2023-07-13T01:06:36;17.20;99.90
8896;DHT22;4484;48.928;10.066;2023-07-13T01:09:05;17.20;99.90
8896;DHT22;4484;48.928;10.066;2023-07-13T01:11:32;17.10;99.90
8896;DHT22;4484;48.928;10.066;2023-07-13T01:14:00;17.10;99.90
8896;DHT22;4484;48.928;10.066;2023-07-13T01:16:33;17.10;99.90
8896;DHT22;4484;48.928;10.066;2023-07-13T01:19:01;17.10;99.90
8896;DHT22;4484;48.928;10.066;2023-07-13T01:21:29;17.00;99.90
8896;DHT22;4484;48.928;10.066;2023-07-13T01:23:58;17.10;99.90
8896;DHT22;4484;48.928;10.066;2023-07-13T01:26:25;17.00;99.90
8896;DHT22;4484;48.928;10.066;2023-07-13T01:28:53;17.10;99.90
8896;DHT22;4484;48.928;10.066;2023-07-13T01:31:23;17.10;99.90
8896;DHT22;4484;48.928;10.066;2023-07-13T01:33:51;17.10;99.90
8896;DHT22;4484;48.928;10.066;2023-07-13T01:36:20;17.10;99.90
8896;DHT22;4484;48.928;10.066;2023-07-13T01:38:48;17.10;99.90
8896;DHT22;4484;48.928;10.066;2023-07-13T01:41:14;17.10;99.90
8896;DHT22;4484;48.928;10.066;2023-07-13T01:43:41;17.10;99.90
8896;DHT22;4484;48.928;10.066;2023-07-13T01:46:08;17.10;99.90
8896;DHT22;4484;48.928;10.066;2023-07-13T01:48:42;17.00;99.90
8896;DHT22;4484;48.928;10.066;2023-07-13T01:51:09;17.00;99.90
8896;DHT22;4484;48.928;10.066;2023-07-13T01:53:36;16.90;99.90
8896;DHT22;4484;48.928;10.066;2023-07-13T01:56:03;16.90;99.90
8896;DHT22;4484;48.928;10.066;2023-07-13T01:58:30;16.90;99.90
8896;DHT22;4484;48.928;10.066;2023-07-13T02:00:57;16.90;99.90
8896;DHT22;4484;48.928;10.066;2023-07-13T02:03:24;16.80;99.90
8896;DHT22;4484;48.928;10.066;2023-07-13T02:05:51;16.80;99.90
8896;DHT22;4484;48.928;10.066;2023-07-13T02:08:18;16.80;99.90
8896;DHT22;4484;48.928;10.066;2023-07-13T02:10:46;16.70;99.90
8896;DHT22;4484;48.928;10.066;2023-07-13T02:13:13;16.60;99.90
8896;DHT22;4484;48.928;10.066;2023-07-13T02:15:40;16.60;99.90
8896;DHT22;4484;48.928;10.066;2023-07-13T02:18:10;16.50;99.90
8896;DHT22;4484;48.928;10.066;2023-07-13T02:20:36;16.50;99.90
8896;DHT22;4484;48.928;10.066;2023-07-13T02:23:03;16.40;99.90
8896;DHT22;4484;48.928;10.066;2023-07-13T02:25:34;16.40;99.90
8896;DHT22;4484;48.928;10.066;2023-07-13T02:28:01;16.30;99.90
8896;DHT22;4484;48.928;10.066;2023-07-13T02:30:28;16.20;99.90
8896;DHT22;4484;48.928;10.066;2023-07-13T02:32:57;16.10;99.90
8896;DHT22;4484;48.928;10.066;2023-07-13T02:35:24;16.10;99.90
8896;DHT22;4484;48.928;10.066;2023-07-13T02:37:51;16.00;99.90
8896;DHT22;4484;48.928;10.066;2023-07-13T02:40:19;15.90;99.90
8896;DHT22;4484;48.928;10.066;2023-07-13T02:42:46;15.90;99.90
8896;DHT22;4484;48.928;10.066;2023-07-13T02:45:13;15.80;99.90
8896;DHT22;4484;48.928;10.066;2023-07-13T02:47:41;15.70;99.90
8896;DHT22;4484;48.928;10.066;2023-07-13T02:50:08;15.70;99.90
8896;DHT22;4484;48.928;10.066;2023-07-13T02:52:35;15.60;99.90
8896;DHT22;4484;48.928;10.066;2023-07-13T02:55:03;15.60;99.90
8896;DHT22;4484;48.928;10.066;2023-07-13T02:57:30;15.50;99.90
8896;DHT22;4484;48.928;10.066;2023-07-13T03:00:00;15.50;99.90
8896;DHT22;4484;48.928;10.066;2023-07-13T03:02:28;15.40;99.90
8896;DHT22;4484;48.928;10.066;2023-07-13T03:04:55;15.40;99.90
8896;DHT22;4484;48.928;10.066;2023-07-13T03:07:23;15.30;99.90
8896;DHT22;4484;48.928;10.066;2023-07-13T03:09:55;15.30;99.90
8896;DHT22;4484;48.928;10.066;2023-07-13T03:12:25;15.20;99.90
8896;DHT22;4484;48.928;10.066;2023-07-13T03:14:52;15.20;99.90
8896;DHT22;4484;48.928;10.066;2023-07-13T03:17:20;15.10;99.90
8896;DHT22;4484;48.928;10.066;2023-07-13T03:19:48;15.10;99.90
8896;DHT22;4484;48.928;10.066;2023-07-13T03:22:18;15.10;99.90
8896;DHT22;4484;48.928;10.066;2023-07-13T03:24:45;15.10;99.90
8896;DHT22;4484;48.928;10.066;2023-07-13T03:27:12;15.10;99.90
8896;DHT22;4484;48.928;10.066;2023-07-13T03:29:42;15.00;99.90
8896;DHT22;4484;48.928;10.066;2023-07-13T03:32:10;14.90;99.90
8896;DHT22;4484;48.928;10.066;2023-07-13T03:34:37;14.90;99.90
8896;DHT22;4484;48.928;10.066;2023-07-13T03:37:04;14.90;99.90
8896;DHT22;4484;48.928;10.066;2023-07-13T03:39:32;14.80;99.90
8896;DHT22;4484;48.928;10.066;2023-07-13T03:41:59;14.90;99.90
8896;DHT22;4484;48.928;10.066;2023-07-13T03:44:27;14.80;99.90
8896;DHT22;4484;48.928;10.066;2023-07-13T03:46:56;14.80;99.90
8896;DHT22;4484;48.928;10.066;2023-07-13T03:49:23;14.80;99.90
8896;DHT22;4484;48.928;10.066;2023-07-13T03:51:50;14.80;99.90
8896;DHT22;4484;48.928;10.066;2023-07-13T03:54:19;14.80;99.90
8896;DHT22;4484;48.928;10.066;2023-07-13T03:56:47;14.80;99.90
8896;DHT22;4484;48.928;10.066;2023-07-13T03:59:15;14.80;99.90
8896;DHT22;4484;48.928;10.066;2023-07-13T04:01:43;14.80;99.90
8896;DHT22;4484;48.928;10.066;2023-07-13T04:04:11;14.90;99.90
8896;DHT22;4484;48.928;10.066;2023-07-13T04:06:38;14.90;99.90
8896;DHT22;4484;48.928;10.066;2023-07-13T04:09:05;14.90;99.90
8896;DHT22;4484;48.928;10.066;2023-07-13T04:11:33;14.90;99.90
8896;DHT22;4484;48.928;10.066;2023-07-13T04:14:00;14.90;99.90
8896;DHT22;4484;48.928;10.066;2023-07-13T04:16:27;15.00;99.90
8896;DHT22;4484;48.928;10.066;2023-07-13T04:18:55;15.00;99.90
8896;DHT22;4484;48.928;10.066;2023-07-13T04:21:28;15.00;99.90
8896;DHT22;4484;48.928;10.066;2023-07-13T04:23:55;15.10;99.90
8896;DHT22;4484;48.928;10.066;2023-07-13T04:26:23;15.10;99.90
8896;DHT22;4484;48.928;10.066;2023-07-13T04:28:51;15.10;99.90
8896;DHT22;4484;48.928;10.066;2023-07-13T04:31:18;15.20;99.90
8896;DHT22;4484;48.928;10.066;2023-07-13T04:33:45;15.30;99.90
8896;DHT22;4484;48.928;10.066;2023-07-13T04:36:15;15.30;99.90
8896;DHT22;4484;48.928;10.066;2023-07-13T04:38:43;15.40;99.90
8896;DHT22;4484;48.928;10.066;2023-07-13T04:41:10;15.50;99.90
8896;DHT22;4484;48.928;10.066;2023-07-13T04:43:37;15.60;99.90
8896;DHT22;4484;48.928;10.066;2023-07-13T04:46:06;15.60;99.90
8896;DHT22;4484;48.928;10.066;2023-07-13T04:48:34;15.70;99.90
8896;DHT22;4484;48.928;10.066;2023-07-13T04:51:01;15.80;99.90
8896;DHT22;4484;48.928;10.066;2023-07-13T04:53:29;15.90;99.90
8896;DHT22;4484;48.928;10.066;2023-07-13T04:55:57;16.00;99.90
8896;DHT22;4484;48.928;10.066;2023-07-13T04:58:25;16.10;99.90
8896;DHT22;4484;48.928;10.066;2023-07-13T05:00:52;16.20;99.90
8896;DHT22;4484;48.928;10.066;2023-07-13T05:03:20;16.20;99.90
8896;DHT22;4484;48.928;10.066;2023-07-13T05:06:02;16.20;99.90
8896;DHT22;4484;48.928;10.066;2023-07-13T05:08:29;16.30;99.90
8896;DHT22;4484;48.928;10.066;2023-07-13T05:10:56;16.30;99.90
8896;DHT22;4484;48.928;10.066;2023-07-13T05:13:25;16.40;99.90
8896;DHT22;4484;48.928;10.066;2023-07-13T05:15:58;16.50;99.90
8896;DHT22;4484;48.928;10.066;2023-07-13T05:18:25;16.50;99.90
8896;DHT22;4484;48.928;10.066;2023-07-13T05:21:07;16.60;99.90
8896;DHT22;4484;48.928;10.066;2023-07-13T05:23:35;16.70;99.90
8896;DHT22;4484;48.928;10.066;2023-07-13T05:26:03;16.80;99.90
8896;DHT22;4484;48.928;10.066;2023-07-13T05:28:35;17.00;99.90
8896;DHT22;4484;48.928;10.066;2023-07-13T05:31:03;17.10;99.90
8896;DHT22;4484;48.928;10.066;2023-07-13T05:33:30;17.20;99.90
8896;DHT22;4484;48.928;10.066;2023-07-13T05:35:57;17.20;99.90
8896;DHT22;4484;48.928;10.066;2023-07-13T05:38:24;17.20;99.90
8896;DHT22;4484;48.928;10.066;2023-07-13T05:40:53;17.30;99.90
8896;DHT22;4484;48.928;10.066;2023-07-13T05:43:20;17.30;99.90
8896;DHT22;4484;48.928;10.066;2023-07-13T05:45:47;17.30;99.90
8896;DHT22;4484;48.928;10.066;2023-07-13T05:48:15;17.30;99.90
8896;DHT22;4484;48.928;10.066;2023-07-13T05:50:41;17.40;99.90
8896;DHT22;4484;48.928;10.066;2023-07-13T05:53:08;17.40;99.90
8896;DHT22;4484;48.928;10.066;2023-07-13T05:55:36;17.40;99.90
8896;DHT22;4484;48.928;10.066;2023-07-13T05:58:07;17.40;99.90
8896;DHT22;4484;48.928;10.066;2023-07-13T06:00:34;17.40;99.90
8896;DHT22;4484;48.928;10.066;2023-07-13T06:03:01;17.50;99.90
8896;DHT22;4484;48.928;10.066;2023-07-13T06:05:28;17.50;99.90
8896;DHT22;4484;48.928;10.066;2023-07-13T06:07:55;17.50;99.90
8896;DHT22;4484;48.928;10.066;2023-07-13T06:10:22;17.50;99.90
8896;DHT22;4484;48.928;10.066;2023-07-13T06:12:49;17.60;99.90
8896;DHT22;4484;48.928;10.066;2023-07-13T06:15:16;17.70;99.90
8896;DHT22;4484;48.928;10.066;2023-07-13T06:17:44;17.70;99.90
8896;DHT22;4484;48.928;10.066;2023-07-13T06:20:11;17.80;99.90
8896;DHT22;4484;48.928;10.066;2023-07-13T06:22:38;17.90;99.90
8896;DHT22;4484;48.928;10.066;2023-07-13T06:25:06;18.00;99.90
8896;DHT22;4484;48.928;10.066;2023-07-13T06:27:33;18.10;99.90
8896;DHT22;4484;48.928;10.066;2023-07-13T06:30:00;18.30;99.90
8896;DHT22;4484;48.928;10.066;2023-07-13T06:32:27;18.40;99.90
8896;DHT22;4484;48.928;10.066;2023-07-13T06:34:54;18.50;99.90
8896;DHT22;4484;48.928;10.066;2023-07-13T06:37:21;18.60;99.90
8896;DHT22;4484;48.928;10.066;2023-07-13T06:39:48;18.70;99.90
8896;DHT22;4484;48.928;10.066;2023-07-13T06:42:16;18.80;99.90
8896;DHT22;4484;48.928;10.066;2023-07-13T06:44:43;18.80;99.90
8896;DHT22;4484;48.928;10.066;2023-07-13T06:47:11;18.90;99.90
8896;DHT22;4484;48.928;10.066;2023-07-13T06:49:38;18.90;99.90
8896;DHT22;4484;48.928;10.066;2023-07-13T06:52:05;18.90;99.90
8896;DHT22;4484;48.928;10.066;2023-07-13T06:54:32;19.00;99.90
8896;DHT22;4484;48.928;10.066;2023-07-13T06:56:59;19.30;99.90
8896;DHT22;4484;48.928;10.066;2023-07-13T06:59:26;19.60;99.90
8896;DHT22;4484;48.928;10.066;2023-07-13T07:01:53;19.80;99.90
8896;DHT22;4484;48.928;10.066;2023-07-13T07:04:20;20.10;99.90
8896;DHT22;4484;48.928;10.066;2023-07-13T07:06:47;20.30;99.90
8896;DHT22;4484;48.928;10.066;2023-07-13T07:09:14;20.70;99.90
8896;DHT22;4484;48.928;10.066;2023-07-13T07:11:43;21.20;99.90
8896;DHT22;4484;48.928;10.066;2023-07-13T07:14:28;21.80;99.90
8896;DHT22;4484;48.928;10.066;2023-07-13T07:16:55;22.40;99.90
8896;DHT22;4484;48.928;10.066;2023-07-13T07:19:22;23.00;99.90
8896;DHT22;4484;48.928;10.066;2023-07-13T07:21:49;23.30;99.90
8896;DHT22;4484;48.928;10.066;2023-07-13T07:24:16;23.30;99.90
8896;DHT22;4484;48.928;10.066;2023-07-13T07:26:43;23.20;99.80
8896;DHT22;4484;48.928;10.066;2023-07-13T07:29:13;23.00;99.60
8896;DHT22;4484;48.928;10.066;2023-07-13T07:31:43;23.00;99.90
8896;DHT22;4484;48.928;10.066;2023-07-13T07:34:13;23.00;98.00
8896;DHT22;4484;48.928;10.066;2023-07-13T07:36:39;23.20;98.80
8896;DHT22;4484;48.928;10.066;2023-07-13T07:39:09;23.30;98.70
8896;DHT22;4484;48.928;10.066;2023-07-13T07:41:36;23.50;98.10
8896;DHT22;4484;48.928;10.066;2023-07-13T07:44:06;23.80;98.00
8896;DHT22;4484;48.928;10.066;2023-07-13T07:46:34;24.00;95.90
8896;DHT22;4484;48.928;10.066;2023-07-13T07:49:01;24.20;95.90
8896;DHT22;4484;48.928;10.066;2023-07-13T07:51:28;24.00;93.90
8896;DHT22;4484;48.928;10.066;2023-07-13T07:53:55;24.20;94.10
8896;DHT22;4484;48.928;10.066;2023-07-13T07:56:22;24.60;93.90
8896;DHT22;4484;48.928;10.066;2023-07-13T07:58:52;25.20;93.40
8896;DHT22;4484;48.928;10.066;2023-07-13T08:01:22;25.80;91.00
8896;DHT22;4484;48.928;10.066;2023-07-13T08:03:52;26.50;91.00
8896;DHT22;4484;48.928;10.066;2023-07-13T08:06:22;27.10;90.10
8896;DHT22;4484;48.928;10.066;2023-07-13T08:08:52;27.30;77.10
8896;DHT22;4484;48.928;10.066;2023-07-13T08:11:20;27.50;78.10
8896;DHT22;4484;48.928;10.066;2023-07-13T08:13:50;27.70;76.30
8896;DHT22;4484;48.928;10.066;2023-07-13T08:16:21;28.10;74.40
8896;DHT22;4484;48.928;10.066;2023-07-13T08:18:49;28.20;70.90
8896;DHT22;4484;48.928;10.066;2023-07-13T08:21:16;28.30;68.10
8896;DHT22;4484;48.928;10.066;2023-07-13T08:23:43;28.70;67.20
8896;DHT22;4484;48.928;10.066;2023-07-13T08:26:10;29.10;69.30
8896;DHT22;4484;48.928;10.066;2023-07-13T08:28:37;29.60;70.90
8896;DHT22;4484;48.928;10.066;2023-07-13T08:31:05;30.20;67.30
8896;DHT22;4484;48.928;10.066;2023-07-13T08:33:35;30.50;67.20
8896;DHT22;4484;48.928;10.066;2023-07-13T08:36:03;31.00;66.80
8896;DHT22;4484;48.928;10.066;2023-07-13T08:38:30;31.50;64.80
8896;DHT22;4484;48.928;10.066;2023-07-13T08:40:57;31.70;60.70
8896;DHT22;4484;48.928;10.066;2023-07-13T08:43:35;32.10;61.10
8896;DHT22;4484;48.928;10.066;2023-07-13T08:48:53;32.60;57.60
8896;DHT22;4484;48.928;10.066;2023-07-13T08:51:45;32.40;56.20
8896;DHT22;4484;48.928;10.066;2023-07-13T08:54:23;32.60;59.00
8896;DHT22;4484;48.928;10.066;2023-07-13T08:56:53;32.70;55.70
8896;DHT22;4484;48.928;10.066;2023-07-13T08:59:25;32.80;55.30
8896;DHT22;4484;48.928;10.066;2023-07-13T09:05:10;32.60;55.20
8896;DHT22;4484;48.928;10.066;2023-07-13T09:08:09;32.60;54.40
8896;DHT22;4484;48.928;10.066;2023-07-13T09:10:53;32.90;54.30
8896;DHT22;4484;48.928;10.066;2023-07-13T09:13:43;33.30;55.60
8896;DHT22;4484;48.928;10.066;2023-07-13T09:16:15;33.30;49.90
8896;DHT22;4484;48.928;10.066;2023-07-13T09:18:48;33.10;52.60
8896;DHT22;4484;48.928;10.066;2023-07-13T09:21:21;33.20;51.40
8896;DHT22;4484;48.928;10.066;2023-07-13T09:23:53;33.50;53.30
8896;DHT22;4484;48.928;10.066;2023-07-13T09:26:23;33.20;52.00
8896;DHT22;4484;48.928;10.066;2023-07-13T09:28:58;33.30;53.80
8896;DHT22;4484;48.928;10.066;2023-07-13T09:31:37;33.60;53.40
8896;DHT22;4484;48.928;10.066;2023-07-13T09:34:10;33.20;53.00
8896;DHT22;4484;48.928;10.066;2023-07-13T09:36:38;32.90;53.30
8896;DHT22;4484;48.928;10.066;2023-07-13T09:42:01;33.00;54.50
8896;DHT22;4484;48.928;10.066;2023-07-13T09:44:34;33.40;51.70
8896;DHT22;4484;48.928;10.066;2023-07-13T09:47:03;32.90;53.30
8896;DHT22;4484;48.928;10.066;2023-07-13T09:49:35;32.40;54.50
8896;DHT22;4484;48.928;10.066;2023-07-13T09:52:05;31.70;54.50
8896;DHT22;4484;48.928;10.066;2023-07-13T09:54:35;31.60;54.10
8896;DHT22;4484;48.928;10.066;2023-07-13T09:57:11;31.70;52.90
8896;DHT22;4484;48.928;10.066;2023-07-13T09:59:47;31.90;52.50
8896;DHT22;4484;48.928;10.066;2023-07-13T10:02:24;32.00;50.40
8896;DHT22;4484;48.928;10.066;2023-07-13T10:05:03;32.30;51.80
8896;DHT22;4484;48.928;10.066;2023-07-13T10:07:31;32.60;50.90
8896;DHT22;4484;48.928;10.066;2023-07-13T10:10:00;32.70;51.40
8896;DHT22;4484;48.928;10.066;2023-07-13T10:12:30;32.80;52.50
8896;DHT22;4484;48.928;10.066;2023-07-13T10:15:02;32.90;50.70
8896;DHT22;4484;48.928;10.066;2023-07-13T10:17:53;32.70;50.00
8896;DHT22;4484;48.928;10.066;2023-07-13T10:20:22;32.60;48.60
8896;DHT22;4484;48.928;10.066;2023-07-13T10:23:02;32.40;51.00
8896;DHT22;4484;48.928;10.066;2023-07-13T10:25:33;32.60;51.90
8896;DHT22;4484;48.928;10.066;2023-07-13T10:30:52;32.60;51.60
8896;DHT22;4484;48.928;10.066;2023-07-13T10:33:21;32.60;52.70
8896;DHT22;4484;48.928;10.066;2023-07-13T10:35:51;32.40;51.30
8896;DHT22;4484;48.928;10.066;2023-07-13T10:38:22;32.30;51.30
8896;DHT22;4484;48.928;10.066;2023-07-13T10:41:06;31.80;51.00
8896;DHT22;4484;48.928;10.066;2023-07-13T10:43:43;31.60;52.20
8896;DHT22;4484;48.928;10.066;2023-07-13T10:46:13;31.80;53.20
8896;DHT22;4484;48.928;10.066;2023-07-13T10:48:43;32.10;50.60
8896;DHT22;4484;48.928;10.066;2023-07-13T10:51:14;32.70;50.30
8896;DHT22;4484;48.928;10.066;2023-07-13T10:53:42;33.40;51.40
8896;DHT22;4484;48.928;10.066;2023-07-13T10:56:28;33.40;48.80
8896;DHT22;4484;48.928;10.066;2023-07-13T11:01:41;33.70;49.00
8896;DHT22;4484;48.928;10.066;2023-07-13T11:04:13;34.10;48.00
8896;DHT22;4484;48.928;10.066;2023-07-13T11:06:42;33.90;48.20
8896;DHT22;4484;48.928;10.066;2023-07-13T11:11:56;32.80;46.80
8896;DHT22;4484;48.928;10.066;2023-07-13T11:14:37;32.60;48.30
8896;DHT22;4484;48.928;10.066;2023-07-13T11:17:48;32.20;47.30
8896;DHT22;4484;48.928;10.066;2023-07-13T11:22:44;32.80;48.40
8896;DHT22;4484;48.928;10.066;2023-07-13T11:30:37;32.90;45.60
8896;DHT22;4484;48.928;10.066;2023-07-13T11:33:10;32.40;47.30
8896;DHT22;4484;48.928;10.066;2023-07-13T11:35:45;32.10;48.00
8896;DHT22;4484;48.928;10.066;2023-07-13T11:38:20;31.90;50.10
8896;DHT22;4484;48.928;10.066;2023-07-13T11:40:51;32.00;48.80
8896;DHT22;4484;48.928;10.066;2023-07-13T11:43:22;31.70;47.30
8896;DHT22;4484;48.928;10.066;2023-07-13T11:45:52;31.40;48.70
8896;DHT22;4484;48.928;10.066;2023-07-13T11:48:23;31.10;49.40
8896;DHT22;4484;48.928;10.066;2023-07-13T11:51:02;31.10;49.60
8896;DHT22;4484;48.928;10.066;2023-07-13T11:53:39;30.90;49.30
8896;DHT22;4484;48.928;10.066;2023-07-13T11:56:07;30.90;49.20
8896;DHT22;4484;48.928;10.066;2023-07-13T11:58:34;30.90;50.70
8896;DHT22;4484;48.928;10.066;2023-07-13T12:01:02;31.60;51.50
8896;DHT22;4484;48.928;10.066;2023-07-13T12:03:33;32.20;48.10
8896;DHT22;4484;48.928;10.066;2023-07-13T12:06:04;32.40;47.90
8896;DHT22;4484;48.928;10.066;2023-07-13T12:08:39;32.10;47.70
8896;DHT22;4484;48.928;10.066;2023-07-13T12:11:16;32.20;48.00
8896;DHT22;4484;48.928;10.066;2023-07-13T12:13:45;32.50;49.20
8896;DHT22;4484;48.928;10.066;2023-07-13T12:18:44;31.90;47.70
8896;DHT22;4484;48.928;10.066;2023-07-13T12:21:16;32.10;48.00
8896;DHT22;4484;48.928;10.066;2023-07-13T12:23:45;31.60;47.30
8896;DHT22;4484;48.928;10.066;2023-07-13T12:26:13;31.50;47.60
8896;DHT22;4484;48.928;10.066;2023-07-13T12:28:55;31.50;48.80
8896;DHT22;4484;48.928;10.066;2023-07-13T12:34:06;32.20;47.00
8896;DHT22;4484;48.928;10.066;2023-07-13T12:36:35;31.90;47.20
8896;DHT22;4484;48.928;10.066;2023-07-13T12:39:19;32.00;47.90
8896;DHT22;4484;48.928;10.066;2023-07-13T12:41:48;32.20;47.60
8896;DHT22;4484;48.928;10.066;2023-07-13T12:44:18;32.20;47.60
8896;DHT22;4484;48.928;10.066;2023-07-13T12:47:04;32.40;47.70
8896;DHT22;4484;48.928;10.066;2023-07-13T12:49:33;32.70;48.20
8896;DHT22;4484;48.928;10.066;2023-07-13T12:52:09;32.80;47.50
8896;DHT22;4484;48.928;10.066;2023-07-13T12:54:41;32.70;47.40
8896;DHT22;4484;48.928;10.066;2023-07-13T12:57:18;32.90;47.40
8896;DHT22;4484;48.928;10.066;2023-07-13T12:59:45;32.80;46.40
8896;DHT22;4484;48.928;10.066;2023-07-13T13:02:33;32.80;44.90
8896;DHT22;4484;48.928;10.066;2023-07-13T13:05:02;32.80;47.00
8896;DHT22;4484;48.928;10.066;2023-07-13T13:07:31;32.20;48.10
8896;DHT22;4484;48.928;10.066;2023-07-13T13:09:58;32.20;47.30
8896;DHT22;4484;48.928;10.066;2023-07-13T13:12:25;31.80;47.40
8896;DHT22;4484;48.928;10.066;2023-07-13T13:14:53;31.30;47.30
8896;DHT22;4484;48.928;10.066;2023-07-13T13:17:27;31.20;47.40
8896;DHT22;4484;48.928;10.066;2023-07-13T13:19:56;31.20;46.60
8896;DHT22;4484;48.928;10.066;2023-07-13T13:22:24;31.10;48.80
8896;DHT22;4484;48.928;10.066;2023-07-13T13:24:51;30.80;48.30
8896;DHT22;4484;48.928;10.066;2023-07-13T13:27:20;31.00;49.00
8896;DHT22;4484;48.928;10.066;2023-07-13T13:29:49;31.30;48.00
8896;DHT22;4484;48.928;10.066;2023-07-13T13:32:18;31.70;50.40
8896;DHT22;4484;48.928;10.066;2023-07-13T13:34:45;32.00;46.60
8896;DHT22;4484;48.928;10.066;2023-07-13T13:37:18;32.10;46.00
8896;DHT22;4484;48.928;10.066;2023-07-13T13:39:46;31.70;46.20
8896;DHT22;4484;48.928;10.066;2023-07-13T13:42:33;31.10;47.80
8896;DHT22;4484;48.928;10.066;2023-07-13T13:45:00;31.20;48.30
8896;DHT22;4484;48.928;10.066;2023-07-13T13:47:33;31.00;48.30
8896;DHT22;4484;48.928;10.066;2023-07-13T13:50:20;30.30;48.60
8896;DHT22;4484;48.928;10.066;2023-07-13T13:52:49;30.00;50.10
8896;DHT22;4484;48.928;10.066;2023-07-13T13:55:18;30.20;49.80
8896;DHT22;4484;48.928;10.066;2023-07-13T13:57:46;30.10;50.70
8896;DHT22;4484;48.928;10.066;2023-07-13T14:00:14;29.90;50.40
8896;DHT22;4484;48.928;10.066;2023-07-13T14:02:45;29.50;51.20
8896;DHT22;4484;48.928;10.066;2023-07-13T14:05:21;29.30;51.60
8896;DHT22;4484;48.928;10.066;2023-07-13T14:07:49;29.20;51.60
8896;DHT22;4484;48.928;10.066;2023-07-13T14:10:18;29.10;51.80
8896;DHT22;4484;48.928;10.066;2023-07-13T14:12:47;29.60;54.10
8896;DHT22;4484;48.928;10.066;2023-07-13T14:15:22;30.20;52.70
8896;DHT22;4484;48.928;10.066;2023-07-13T14:17:49;30.70;51.30
8896;DHT22;4484;48.928;10.066;2023-07-13T14:20:19;31.00;50.60
8896;DHT22;4484;48.928;10.066;2023-07-13T14:22:47;31.20;50.50
8896;DHT22;4484;48.928;10.066;2023-07-13T14:25:17;31.10;50.50
8896;DHT22;4484;48.928;10.066;2023-07-13T14:27:45;30.60;49.10
8896;DHT22;4484;48.928;10.066;2023-07-13T14:30:18;30.20;50.30
8896;DHT22;4484;48.928;10.066;2023-07-13T14:32:46;29.50;50.70
8896;DHT22;4484;48.928;10.066;2023-07-13T14:35:15;29.70;52.20
8896;DHT22;4484;48.928;10.066;2023-07-13T14:37:43;30.10;52.20
8896;DHT22;4484;48.928;10.066;2023-07-13T14:40:15;30.50;52.90
8896;DHT22;4484;48.928;10.066;2023-07-13T14:42:43;30.80;52.00
8896;DHT22;4484;48.928;10.066;2023-07-13T14:45:15;30.60;49.60
8896;DHT22;4484;48.928;10.066;2023-07-13T14:47:43;30.50;50.40
8896;DHT22;4484;48.928;10.066;2023-07-13T14:50:15;30.40;50.20
8896;DHT22;4484;48.928;10.066;2023-07-13T14:52:43;30.40;50.80
8896;DHT22;4484;48.928;10.066;2023-07-13T14:55:15;30.40;50.50
8896;DHT22;4484;48.928;10.066;2023-07-13T14:57:42;30.10;51.80
8896;DHT22;4484;48.928;10.066;2023-07-13T15:00:20;29.50;50.30
8896;DHT22;4484;48.928;10.066;2023-07-13T15:02:53;29.00;51.30
8896;DHT22;4484;48.928;10.066;2023-07-13T15:05:25;29.20;52.40
8896;DHT22;4484;48.928;10.066;2023-07-13T15:07:53;29.50;52.20
8896;DHT22;4484;48.928;10.066;2023-07-13T15:10:24;29.20;50.60
8896;DHT22;4484;48.928;10.066;2023-07-13T15:13:14;29.00;52.10
8896;DHT22;4484;48.928;10.066;2023-07-13T15:15:44;28.60;52.40
8896;DHT22;4484;48.928;10.066;2023-07-13T15:18:13;28.40;52.50
8896;DHT22;4484;48.928;10.066;2023-07-13T15:20:41;28.50;53.60
8896;DHT22;4484;48.928;10.066;2023-07-13T15:23:09;28.60;52.70
8896;DHT22;4484;48.928;10.066;2023-07-13T15:25:37;28.70;52.70
8896;DHT22;4484;48.928;10.066;2023-07-13T15:28:04;28.80;52.70
8896;DHT22;4484;48.928;10.066;2023-07-13T15:30:44;28.80;51.00
8896;DHT22;4484;48.928;10.066;2023-07-13T15:33:28;28.70;50.80
8896;DHT22;4484;48.928;10.066;2023-07-13T15:35:56;29.00;52.10
8896;DHT22;4484;48.928;10.066;2023-07-13T15:38:27;29.10;52.60
8896;DHT22;4484;48.928;10.066;2023-07-13T15:40:55;29.40;52.20
8896;DHT22;4484;48.928;10.066;2023-07-13T15:43:23;29.70;52.40
8896;DHT22;4484;48.928;10.066;2023-07-13T15:45:50;29.90;50.90
8896;DHT22;4484;48.928;10.066;2023-07-13T15:48:22;29.90;50.50
8896;DHT22;4484;48.928;10.066;2023-07-13T15:50:51;29.60;48.60
8896;DHT22;4484;48.928;10.066;2023-07-13T15:53:24;29.20;50.10
8896;DHT22;4484;48.928;10.066;2023-07-13T15:55:52;29.00;50.40
8896;DHT22;4484;48.928;10.066;2023-07-13T15:58:19;28.80;50.50
8896;DHT22;4484;48.928;10.066;2023-07-13T16:00:48;28.50;51.20
8896;DHT22;4484;48.928;10.066;2023-07-13T16:03:19;28.10;51.30
8896;DHT22;4484;48.928;10.066;2023-07-13T16:05:47;27.70;53.00
8896;DHT22;4484;48.928;10.066;2023-07-13T16:08:23;27.40;54.50
8896;DHT22;4484;48.928;10.066;2023-07-13T16:10:51;27.30;55.50
8896;DHT22;4484;48.928;10.066;2023-07-13T16:13:20;27.30;56.60
8896;DHT22;4484;48.928;10.066;2023-07-13T16:15:47;27.50;56.50
8896;DHT22;4484;48.928;10.066;2023-07-13T16:18:15;27.50;55.80
8896;DHT22;4484;48.928;10.066;2023-07-13T16:20:46;27.60;56.20
8896;DHT22;4484;48.928;10.066;2023-07-13T16:23:15;27.60;56.50
8896;DHT22;4484;48.928;10.066;2023-07-13T16:25:44;27.50;56.40
8896;DHT22;4484;48.928;10.066;2023-07-13T16:28:12;27.30;56.50
8896;DHT22;4484;48.928;10.066;2023-07-13T16:30:39;26.80;56.40
8896;DHT22;4484;48.928;10.066;2023-07-13T16:33:06;26.60;57.50
8896;DHT22;4484;48.928;10.066;2023-07-13T16:35:36;26.40;58.40